sensor_id;sensor_type;location;lat;lon;timestamp;pressure;altitude;pressure_sealevel;temperature;humidity
56456;BME280;42354;53.218;6.564;2023-04-27T00:01:41;46964.72;;;-142.92;87.90
56456;BME280;42354;53.218;6.564;2023-04-27T00:04:07;46962.66;;;-142.92;87.74
56456;BME280;42354;53.218;6.564;2023-04-27T00:06:32;46940.09;;;-142.92;87.60
56456;BME280;42354;53.218;6.564;2023-04-27T00:09:00;46944.19;;;-142.92;87.32
56456;BME280;42354;53.218;6.564;2023-04-27T00:11:25;46958.56;;;-142.92;87.69
56456;BME280;42354;53.218;6.564;2023-04-27T00:13:51;46954.44;;;-142.92;87.95
56456;BME280;42354;53.218;6.564;2023-04-27T00:16:16;46942.13;;;-142.92;87.71
56456;BME280;42354;53.218;6.564;2023-04-27T00:18:42;46952.41;;;-142.92;87.70
56456;BME280;42354;53.218;6.564;2023-04-27T00:21:08;46946.25;;;-142.92;87.01
56456;BME280;42354;53.218;6.564;2023-04-27T00:23:34;46958.56;;;-142.92;86.89
56456;BME280;42354;53.218;6.564;2023-04-27T00:25:59;46950.34;;;-142.92;86.93
56456;BME280;42354;53.218;6.564;2023-04-27T00:28:25;46952.41;;;-142.92;86.87
56456;BME280;42354;53.218;6.564;2023-04-27T00:30:50;46942.13;;;-142.92;86.79
56456;BME280;42354;53.218;6.564;2023-04-27T00:33:19;46946.25;;;-142.92;86.58
56456;BME280;42354;53.218;6.564;2023-04-27T00:35:44;46960.59;;;-142.92;86.41
56456;BME280;42354;53.218;6.564;2023-04-27T00:38:10;46968.81;;;-142.92;86.46
56456;BME280;42354;53.218;6.564;2023-04-27T00:40:36;46960.59;;;-142.92;86.52
56456;BME280;42354;53.218;6.564;2023-04-27T00:43:01;46948.28;;;-142.92;86.69
56456;BME280;42354;53.218;6.564;2023-04-27T00:45:27;46950.34;;;-142.92;86.48
56456;BME280;42354;53.218;6.564;2023-04-27T00:47:52;46942.13;;;-142.92;86.60
56456;BME280;42354;53.218;6.564;2023-04-27T00:50:26;46968.81;;;-142.92;86.23
56456;BME280;42354;53.218;6.564;2023-04-27T00:52:52;46950.34;;;-142.92;86.66
56456;BME280;42354;53.218;6.564;2023-04-27T00:55:18;46966.75;;;-142.92;86.73
56456;BME280;42354;53.218;6.564;2023-04-27T00:57:44;46946.25;;;-142.92;87.16
56456;BME280;42354;53.218;6.564;2023-04-27T01:00:10;46925.72;;;-142.92;87.16
56456;BME280;42354;53.218;6.564;2023-04-27T01:02:36;46950.34;;;-142.92;87.34
56456;BME280;42354;53.218;6.564;2023-04-27T01:05:02;46954.44;;;-142.92;87.28
56456;BME280;42354;53.218;6.564;2023-04-27T01:07:28;46950.34;;;-142.92;87.64
56456;BME280;42354;53.218;6.564;2023-04-27T01:09:53;46942.13;;;-142.92;87.72
56456;BME280;42354;53.218;6.564;2023-04-27T01:12:19;46958.56;;;-142.92;88.01
56456;BME280;42354;53.218;6.564;2023-04-27T01:14:47;46966.75;;;-142.92;87.79
56456;BME280;42354;53.218;6.564;2023-04-27T01:17:12;46960.59;;;-142.92;87.86
56456;BME280;42354;53.218;6.564;2023-04-27T01:19:38;46966.75;;;-142.92;87.86
56456;BME280;42354;53.218;6.564;2023-04-27T01:22:04;46966.75;;;-142.92;87.88
56456;BME280;42354;53.218;6.564;2023-04-27T01:24:31;46960.59;;;-142.92;88.08
56456;BME280;42354;53.218;6.564;2023-04-27T01:26:56;46950.34;;;-142.92;88.34
56456;BME280;42354;53.218;6.564;2023-04-27T01:29:22;46938.03;;;-142.92;88.41
56456;BME280;42354;53.218;6.564;2023-04-27T01:31:48;46950.34;;;-142.92;88.84
56456;BME280;42354;53.218;6.564;2023-04-27T01:34:13;46946.25;;;-142.92;88.89
56456;BME280;42354;53.218;6.564;2023-04-27T01:36:39;46921.63;;;-142.92;88.89
56456;BME280;42354;53.218;6.564;2023-04-27T01:39:04;46942.13;;;-142.92;89.04
56456;BME280;42354;53.218;6.564;2023-04-27T01:41:33;46944.19;;;-142.92;89.28
56456;BME280;42354;53.218;6.564;2023-04-27T01:43:59;46960.59;;;-142.92;89.37
56456;BME280;42354;53.218;6.564;2023-04-27T01:46:24;46956.50;;;-142.92;89.64
56456;BME280;42354;53.218;6.564;2023-04-27T01:48:50;46958.56;;;-142.92;89.94
56456;BME280;42354;53.218;6.564;2023-04-27T01:51:15;46952.41;;;-142.92;89.97
56456;BME280;42354;53.218;6.564;2023-04-27T01:53:41;46970.88;;;-142.92;90.07
56456;BME280;42354;53.218;6.564;2023-04-27T01:56:07;46977.03;;;-142.92;90.11
56456;BME280;42354;53.218;6.564;2023-04-27T01:58:32;46966.75;;;-142.92;90.55
56456;BME280;42354;53.218;6.564;2023-04-27T02:00:58;46960.59;;;-142.92;90.56
56456;BME280;42354;53.218;6.564;2023-04-27T02:03:23;46940.09;;;-142.92;90.65
56456;BME280;42354;53.218;6.564;2023-04-27T02:05:48;46950.34;;;-142.92;90.87
56456;BME280;42354;53.218;6.564;2023-04-27T02:08:14;46958.56;;;-142.92;91.00
56456;BME280;42354;53.218;6.564;2023-04-27T02:10:39;46948.28;;;-142.92;90.99
56456;BME280;42354;53.218;6.564;2023-04-27T02:13:05;46946.25;;;-142.92;91.20
56456;BME280;42354;53.218;6.564;2023-04-27T02:15:30;46966.75;;;-142.92;91.45
56456;BME280;42354;53.218;6.564;2023-04-27T02:17:56;46942.13;;;-142.92;91.67
56456;BME280;42354;53.218;6.564;2023-04-27T02:20:22;46952.41;;;-142.92;91.85
56456;BME280;42354;53.218;6.564;2023-04-27T02:22:47;46944.19;;;-142.92;91.91
56456;BME280;42354;53.218;6.564;2023-04-27T02:25:13;46946.25;;;-142.92;92.12
56456;BME280;42354;53.218;6.564;2023-04-27T02:27:40;46925.72;;;-142.92;92.16
56456;BME280;42354;53.218;6.564;2023-04-27T02:30:06;46954.44;;;-142.92;92.35
56456;BME280;42354;53.218;6.564;2023-04-27T02:32:32;46942.13;;;-142.92;92.48
56456;BME280;42354;53.218;6.564;2023-04-27T02:34:58;46942.13;;;-142.92;92.60
56456;BME280;42354;53.218;6.564;2023-04-27T02:37:24;46942.13;;;-142.92;92.57
56456;BME280;42354;53.218;6.564;2023-04-27T02:39:49;46950.34;;;-142.92;92.69
56456;BME280;42354;53.218;6.564;2023-04-27T02:42:15;46954.44;;;-142.92;92.94
56456;BME280;42354;53.218;6.564;2023-04-27T02:44:41;46960.59;;;-142.92;92.85
56456;BME280;42354;53.218;6.564;2023-04-27T02:47:06;46935.97;;;-142.92;92.87
56456;BME280;42354;53.218;6.564;2023-04-27T02:49:31;46954.44;;;-142.92;93.06
56456;BME280;42354;53.218;6.564;2023-04-27T02:51:57;46942.13;;;-142.92;93.19
56456;BME280;42354;53.218;6.564;2023-04-27T02:54:22;46931.88;;;-142.92;93.52
56456;BME280;42354;53.218;6.564;2023-04-27T02:56:48;46925.72;;;-142.92;93.52
56456;BME280;42354;53.218;6.564;2023-04-27T02:59:13;46940.09;;;-142.92;93.83
56456;BME280;42354;53.218;6.564;2023-04-27T03:01:38;46962.66;;;-142.92;94.29
56456;BME280;42354;53.218;6.564;2023-04-27T03:04:04;46935.97;;;-142.92;94.33
56456;BME280;42354;53.218;6.564;2023-04-27T03:06:30;46940.09;;;-142.92;94.44
56456;BME280;42354;53.218;6.564;2023-04-27T03:08:55;46950.34;;;-142.92;94.51
56456;BME280;42354;53.218;6.564;2023-04-27T03:11:20;46940.09;;;-142.92;94.69
56456;BME280;42354;53.218;6.564;2023-04-27T03:13:47;46940.09;;;-142.92;94.76
56456;BME280;42354;53.218;6.564;2023-04-27T03:16:12;46956.50;;;-142.92;94.91
56456;BME280;42354;53.218;6.564;2023-04-27T03:18:38;46935.97;;;-142.92;94.91
56456;BME280;42354;53.218;6.564;2023-04-27T03:21:11;46946.25;;;-142.92;94.67
56456;BME280;42354;53.218;6.564;2023-04-27T03:23:36;46933.94;;;-142.92;95.03
56456;BME280;42354;53.218;6.564;2023-04-27T03:26:09;46964.72;;;-142.92;94.74
56456;BME280;42354;53.218;6.564;2023-04-27T03:28:35;46958.56;;;-142.92;94.91
56456;BME280;42354;53.218;6.564;2023-04-27T03:31:05;46915.47;;;-142.92;94.97
56456;BME280;42354;53.218;6.564;2023-04-27T03:33:31;46942.13;;;-142.92;95.42
56456;BME280;42354;53.218;6.564;2023-04-27T03:35:57;46940.09;;;-142.92;95.51
56456;BME280;42354;53.218;6.564;2023-04-27T03:38:24;46921.63;;;-142.92;95.85
56456;BME280;42354;53.218;6.564;2023-04-27T03:40:50;46948.28;;;-142.92;96.05
56456;BME280;42354;53.218;6.564;2023-04-27T03:43:15;46942.13;;;-142.92;96.14
56456;BME280;42354;53.218;6.564;2023-04-27T03:45:40;46935.97;;;-142.92;96.19
56456;BME280;42354;53.218;6.564;2023-04-27T03:48:06;46942.13;;;-142.92;96.22
56456;BME280;42354;53.218;6.564;2023-04-27T03:50:31;46940.09;;;-142.92;96.31
56456;BME280;42354;53.218;6.564;2023-04-27T03:52:57;46946.25;;;-142.92;96.25
56456;BME280;42354;53.218;6.564;2023-04-27T03:55:22;46938.03;;;-142.92;96.53
56456;BME280;42354;53.218;6.564;2023-04-27T03:57:47;46929.81;;;-142.92;96.90
56456;BME280;42354;53.218;6.564;2023-04-27T04:00:13;46942.13;;;-142.92;97.06
56456;BME280;42354;53.218;6.564;2023-04-27T04:02:39;46931.88;;;-142.92;97.22
56456;BME280;42354;53.218;6.564;2023-04-27T04:05:04;46942.13;;;-142.92;97.18
56456;BME280;42354;53.218;6.564;2023-04-27T04:07:30;46956.50;;;-142.92;97.29
56456;BME280;42354;53.218;6.564;2023-04-27T04:09:55;46942.13;;;-142.92;97.41
56456;BME280;42354;53.218;6.564;2023-04-27T04:12:21;46931.88;;;-142.92;97.56
56456;BME280;42354;53.218;6.564;2023-04-27T04:14:46;46958.56;;;-142.92;97.53
56456;BME280;42354;53.218;6.564;2023-04-27T04:17:13;46931.88;;;-142.92;97.66
56456;BME280;42354;53.218;6.564;2023-04-27T04:19:39;46952.41;;;-142.92;97.71
56456;BME280;42354;53.218;6.564;2023-04-27T04:22:04;46946.25;;;-142.92;97.78
56456;BME280;42354;53.218;6.564;2023-04-27T04:24:29;46933.94;;;-142.92;97.89
56456;BME280;42354;53.218;6.564;2023-04-27T04:26:55;46938.03;;;-142.92;97.91
56456;BME280;42354;53.218;6.564;2023-04-27T04:29:21;46962.66;;;-142.92;97.88
56456;BME280;42354;53.218;6.564;2023-04-27T04:31:46;46942.13;;;-142.92;98.08
56456;BME280;42354;53.218;6.564;2023-04-27T04:34:12;46929.81;;;-142.92;98.23
56456;BME280;42354;53.218;6.564;2023-04-27T04:36:38;46948.28;;;-142.92;98.30
56456;BME280;42354;53.218;6.564;2023-04-27T04:39:04;46948.28;;;-142.92;98.41
56456;BME280;42354;53.218;6.564;2023-04-27T04:41:31;46942.13;;;-142.92;98.23
56456;BME280;42354;53.218;6.564;2023-04-27T04:43:57;46940.09;;;-142.92;98.19
56456;BME280;42354;53.218;6.564;2023-04-27T04:46:22;46944.19;;;-142.92;98.19
56456;BME280;42354;53.218;6.564;2023-04-27T04:48:49;46970.88;;;-142.92;97.99
56456;BME280;42354;53.218;6.564;2023-04-27T04:51:15;46946.25;;;-142.92;97.87
56456;BME280;42354;53.218;6.564;2023-04-27T04:53:40;46964.72;;;-142.92;97.83
56456;BME280;42354;53.218;6.564;2023-04-27T04:56:13;46942.13;;;-142.92;97.24
56456;BME280;42354;53.218;6.564;2023-04-27T04:58:39;46958.56;;;-142.92;97.42
56456;BME280;42354;53.218;6.564;2023-04-27T05:01:05;46954.44;;;-142.92;97.20
56456;BME280;42354;53.218;6.564;2023-04-27T05:03:31;46964.72;;;-142.92;96.99
56456;BME280;42354;53.218;6.564;2023-04-27T05:05:56;46952.41;;;-142.92;96.58
56456;BME280;42354;53.218;6.564;2023-04-27T05:08:22;46962.66;;;-142.92;96.40
56456;BME280;42354;53.218;6.564;2023-04-27T05:10:51;46962.66;;;-142.92;96.15
56456;BME280;42354;53.218;6.564;2023-04-27T05:13:17;46933.94;;;-142.92;95.43
56456;BME280;42354;53.218;6.564;2023-04-27T05:15:42;46948.28;;;-142.92;94.58
56456;BME280;42354;53.218;6.564;2023-04-27T05:18:08;46952.41;;;-142.92;94.31
56456;BME280;42354;53.218;6.564;2023-04-27T05:20:34;46954.44;;;-142.92;93.38
56456;BME280;42354;53.218;6.564;2023-04-27T05:23:00;46946.25;;;-142.92;92.67
56456;BME280;42354;53.218;6.564;2023-04-27T05:25:28;46977.03;;;-142.92;92.26
56456;BME280;42354;53.218;6.564;2023-04-27T05:27:53;46972.91;;;-142.92;91.85
56456;BME280;42354;53.218;6.564;2023-04-27T05:30:19;46991.38;;;-142.92;91.68
56456;BME280;42354;53.218;6.564;2023-04-27T05:32:45;46954.44;;;-142.92;91.45
56456;BME280;42354;53.218;6.564;2023-04-27T05:35:10;46952.41;;;-142.92;91.21
56456;BME280;42354;53.218;6.564;2023-04-27T05:37:36;46979.06;;;-142.92;90.41
56456;BME280;42354;53.218;6.564;2023-04-27T05:40:01;46958.56;;;-142.92;89.89
56456;BME280;42354;53.218;6.564;2023-04-27T05:42:29;46962.66;;;-142.92;89.43
56456;BME280;42354;53.218;6.564;2023-04-27T05:44:54;46970.88;;;-142.92;88.99
56456;BME280;42354;53.218;6.564;2023-04-27T05:47:20;46977.03;;;-142.92;88.28
56456;BME280;42354;53.218;6.564;2023-04-27T05:49:49;46960.59;;;-142.92;87.43
56456;BME280;42354;53.218;6.564;2023-04-27T05:52:15;46974.97;;;-142.92;87.33
56456;BME280;42354;53.218;6.564;2023-04-27T05:54:45;46974.97;;;-142.92;87.42
56456;BME280;42354;53.218;6.564;2023-04-27T05:57:10;46970.88;;;-142.92;86.87
56456;BME280;42354;53.218;6.564;2023-04-27T05:59:36;46962.66;;;-142.92;86.18
56456;BME280;42354;53.218;6.564;2023-04-27T06:02:01;46958.56;;;-142.92;85.67
56456;BME280;42354;53.218;6.564;2023-04-27T06:04:26;46962.66;;;-142.92;85.59
56456;BME280;42354;53.218;6.564;2023-04-27T06:06:53;46962.66;;;-142.92;84.29
56456;BME280;42354;53.218;6.564;2023-04-27T06:09:19;46966.75;;;-142.92;83.13
56456;BME280;42354;53.218;6.564;2023-04-27T06:11:44;46979.06;;;-142.92;82.74
56456;BME280;42354;53.218;6.564;2023-04-27T06:14:11;46970.88;;;-142.92;81.71
56456;BME280;42354;53.218;6.564;2023-04-27T06:16:37;46972.91;;;-142.92;79.25
56456;BME280;42354;53.218;6.564;2023-04-27T06:19:04;46974.97;;;-142.92;78.06
56456;BME280;42354;53.218;6.564;2023-04-27T06:21:33;46974.97;;;-142.92;76.90
56456;BME280;42354;53.218;6.564;2023-04-27T06:23:59;46987.28;;;-142.92;76.22
56456;BME280;42354;53.218;6.564;2023-04-27T06:26:25;46964.72;;;-142.92;75.64
56456;BME280;42354;53.218;6.564;2023-04-27T06:28:50;46981.13;;;-142.92;76.51
56456;BME280;42354;53.218;6.564;2023-04-27T06:31:16;46974.97;;;-142.92;74.95
56456;BME280;42354;53.218;6.564;2023-04-27T06:33:42;46981.13;;;-142.92;74.91
56456;BME280;42354;53.218;6.564;2023-04-27T06:36:07;46960.59;;;-142.92;73.92
56456;BME280;42354;53.218;6.564;2023-04-27T06:38:33;46970.88;;;-142.92;74.30
56456;BME280;42354;53.218;6.564;2023-04-27T06:40:58;46968.81;;;-142.92;73.22
56456;BME280;42354;53.218;6.564;2023-04-27T06:43:24;46964.72;;;-142.92;69.89
56456;BME280;42354;53.218;6.564;2023-04-27T06:45:50;46991.38;;;-142.92;68.89
56456;BME280;42354;53.218;6.564;2023-04-27T06:48:15;46991.38;;;-142.92;68.89
56456;BME280;42354;53.218;6.564;2023-04-27T06:50:41;46974.97;;;-142.92;67.59
56456;BME280;42354;53.218;6.564;2023-04-27T06:53:07;46974.97;;;-142.92;65.94
56456;BME280;42354;53.218;6.564;2023-04-27T06:55:33;46974.97;;;-142.92;65.71
56456;BME280;42354;53.218;6.564;2023-04-27T06:57:59;46985.22;;;-142.92;65.37
56456;BME280;42354;53.218;6.564;2023-04-27T07:00:24;46979.06;;;-142.92;65.71
56456;BME280;42354;53.218;6.564;2023-04-27T07:02:51;46964.72;;;-142.92;65.29
56456;BME280;42354;53.218;6.564;2023-04-27T07:05:16;46987.28;;;-142.92;64.77
56456;BME280;42354;53.218;6.564;2023-04-27T07:07:42;46993.44;;;-142.92;63.34
56456;BME280;42354;53.218;6.564;2023-04-27T07:10:07;46974.97;;;-142.92;62.23
56456;BME280;42354;53.218;6.564;2023-04-27T07:12:33;46974.97;;;-142.92;60.10
56456;BME280;42354;53.218;6.564;2023-04-27T07:14:59;46964.72;;;-142.92;58.43
56456;BME280;42354;53.218;6.564;2023-04-27T07:17:24;46983.19;;;-142.92;56.48
56456;BME280;42354;53.218;6.564;2023-04-27T07:19:51;46962.66;;;-142.92;54.71
56456;BME280;42354;53.218;6.564;2023-04-27T07:22:16;46985.22;;;-142.92;55.10
56456;BME280;42354;53.218;6.564;2023-04-27T07:24:42;46956.50;;;-142.92;55.52
56456;BME280;42354;53.218;6.564;2023-04-27T07:27:07;46977.03;;;-142.92;54.27
56456;BME280;42354;53.218;6.564;2023-04-27T07:29:33;46970.88;;;-142.92;54.05
56456;BME280;42354;53.218;6.564;2023-04-27T07:31:58;46991.38;;;-142.92;54.50
56456;BME280;42354;53.218;6.564;2023-04-27T07:34:24;46995.50;;;-142.92;53.53
56456;BME280;42354;53.218;6.564;2023-04-27T07:36:50;46968.81;;;-142.92;51.89
56456;BME280;42354;53.218;6.564;2023-04-27T07:39:18;46983.19;;;-142.92;51.77
56456;BME280;42354;53.218;6.564;2023-04-27T07:41:43;46974.97;;;-142.92;51.23
56456;BME280;42354;53.218;6.564;2023-04-27T07:44:09;46987.28;;;-142.92;51.31
56456;BME280;42354;53.218;6.564;2023-04-27T07:46:36;46981.13;;;-142.92;51.15
56456;BME280;42354;53.218;6.564;2023-04-27T07:49:02;46979.06;;;-142.92;49.57
56456;BME280;42354;53.218;6.564;2023-04-27T07:51:28;46987.28;;;-142.92;46.52
56456;BME280;42354;53.218;6.564;2023-04-27T07:53:53;46974.97;;;-142.92;45.23
56456;BME280;42354;53.218;6.564;2023-04-27T07:56:19;46970.88;;;-142.92;45.61
56456;BME280;42354;53.218;6.564;2023-04-27T07:58:45;46997.53;;;-142.92;44.29
56456;BME280;42354;53.218;6.564;2023-04-27T08:01:10;46991.38;;;-142.92;43.86
56456;BME280;42354;53.218;6.564;2023-04-27T08:03:35;46972.91;;;-142.92;43.06
56456;BME280;42354;53.218;6.564;2023-04-27T08:06:01;46987.28;;;-142.92;42.68
56456;BME280;42354;53.218;6.564;2023-04-27T08:08:28;46966.75;;;-142.92;44.47
56456;BME280;42354;53.218;6.564;2023-04-27T08:10:53;47001.66;;;-142.92;42.90
56456;BME280;42354;53.218;6.564;2023-04-27T08:13:18;46981.13;;;-142.92;41.21
56456;BME280;42354;53.218;6.564;2023-04-27T08:15:44;46970.88;;;-142.92;41.47
56456;BME280;42354;53.218;6.564;2023-04-27T08:18:09;46981.13;;;-142.92;40.99
56456;BME280;42354;53.218;6.564;2023-04-27T08:20:35;46970.88;;;-142.92;41.05
56456;BME280;42354;53.218;6.564;2023-04-27T08:23:00;46981.13;;;-142.92;40.11
56456;BME280;42354;53.218;6.564;2023-04-27T08:25:25;46966.75;;;-142.92;39.59
56456;BME280;42354;53.218;6.564;2023-04-27T08:27:51;46983.19;;;-142.92;39.39
56456;BME280;42354;53.218;6.564;2023-04-27T08:30:16;46970.88;;;-142.92;38.32
56456;BME280;42354;53.218;6.564;2023-04-27T08:32:42;46981.13;;;-142.92;37.26
56456;BME280;42354;53.218;6.564;2023-04-27T08:35:07;46981.13;;;-142.92;36.69
56456;BME280;42354;53.218;6.564;2023-04-27T08:37:33;46997.53;;;-142.92;36.47
56456;BME280;42354;53.218;6.564;2023-04-27T08:39:58;46987.28;;;-142.92;37.38
56456;BME280;42354;53.218;6.564;2023-04-27T08:42:24;46995.50;;;-142.92;37.35
56456;BME280;42354;53.218;6.564;2023-04-27T08:44:49;46983.19;;;-142.92;37.06
56456;BME280;42354;53.218;6.564;2023-04-27T08:47:15;46981.13;;;-142.92;36.92
56456;BME280;42354;53.218;6.564;2023-04-27T08:49:40;46977.03;;;-142.92;35.80
56456;BME280;42354;53.218;6.564;2023-04-27T08:52:15;46983.19;;;-142.92;34.66
56456;BME280;42354;53.218;6.564;2023-04-27T08:54:41;46977.03;;;-142.92;35.20
56456;BME280;42354;53.218;6.564;2023-04-27T08:57:14;46966.75;;;-142.92;35.06
56456;BME280;42354;53.218;6.564;2023-04-27T08:59:40;46972.91;;;-142.92;34.99
56456;BME280;42354;53.218;6.564;2023-04-27T09:02:17;46985.22;;;-142.92;34.81
56456;BME280;42354;53.218;6.564;2023-04-27T09:04:43;46974.97;;;-142.92;34.98
56456;BME280;42354;53.218;6.564;2023-04-27T09:07:16;46972.91;;;-142.92;34.44
56456;BME280;42354;53.218;6.564;2023-04-27T09:09:42;46966.75;;;-142.92;34.27
56456;BME280;42354;53.218;6.564;2023-04-27T09:14:40;46989.34;;;-142.92;33.33
56456;BME280;42354;53.218;6.564;2023-04-27T09:17:06;46968.81;;;-142.92;33.78
56456;BME280;42354;53.218;6.564;2023-04-27T09:19:31;46977.03;;;-142.92;33.17
56456;BME280;42354;53.218;6.564;2023-04-27T09:24:28;46974.97;;;-142.92;33.23
56456;BME280;42354;53.218;6.564;2023-04-27T09:26:53;46966.75;;;-142.92;33.77
56456;BME280;42354;53.218;6.564;2023-04-27T09:29:19;46970.88;;;-142.92;33.69
56456;BME280;42354;53.218;6.564;2023-04-27T09:31:44;46960.59;;;-142.92;33.36
56456;BME280;42354;53.218;6.564;2023-04-27T09:34:10;46989.34;;;-142.92;33.76
56456;BME280;42354;53.218;6.564;2023-04-27T09:36:35;46966.75;;;-142.92;34.16
56456;BME280;42354;53.218;6.564;2023-04-27T09:39:02;46964.72;;;-142.92;35.20
56456;BME280;42354;53.218;6.564;2023-04-27T09:41:31;46966.75;;;-142.92;34.48
56456;BME280;42354;53.218;6.564;2023-04-27T09:43:57;46966.75;;;-142.92;34.21
56456;BME280;42354;53.218;6.564;2023-04-27T09:46:23;46968.81;;;-142.92;34.78
56456;BME280;42354;53.218;6.564;2023-04-27T09:48:51;46968.81;;;-142.92;33.83
56456;BME280;42354;53.218;6.564;2023-04-27T09:51:17;46974.97;;;-142.92;33.25
56456;BME280;42354;53.218;6.564;2023-04-27T09:53:53;46962.66;;;-142.92;33.97
56456;BME280;42354;53.218;6.564;2023-04-27T09:56:49;46977.03;;;-142.92;34.82
56456;BME280;42354;53.218;6.564;2023-04-27T10:01:58;46962.66;;;-142.92;35.18
56456;BME280;42354;53.218;6.564;2023-04-27T10:07:10;46974.97;;;-142.92;34.99
56456;BME280;42354;53.218;6.564;2023-04-27T10:09:44;46962.66;;;-142.92;34.60
56456;BME280;42354;53.218;6.564;2023-04-27T10:14:54;46987.28;;;-142.92;35.96
56456;BME280;42354;53.218;6.564;2023-04-27T10:17:34;46958.56;;;-142.92;36.42
56456;BME280;42354;53.218;6.564;2023-04-27T10:20:05;46970.88;;;-142.92;35.99
56456;BME280;42354;53.218;6.564;2023-04-27T10:25:12;46981.13;;;-142.92;36.50
56456;BME280;42354;53.218;6.564;2023-04-27T10:27:39;46974.97;;;-142.92;36.28
56456;BME280;42354;53.218;6.564;2023-04-27T10:30:12;46970.88;;;-142.92;36.56
56456;BME280;42354;53.218;6.564;2023-04-27T10:32:55;46968.81;;;-142.92;35.97
56456;BME280;42354;53.218;6.564;2023-04-27T10:35:30;46970.88;;;-142.92;36.65
56456;BME280;42354;53.218;6.564;2023-04-27T10:38:07;46966.75;;;-142.92;36.08
56456;BME280;42354;53.218;6.564;2023-04-27T10:40:33;46954.44;;;-142.92;36.66
56456;BME280;42354;53.218;6.564;2023-04-27T10:43:11;46977.03;;;-142.92;36.49
56456;BME280;42354;53.218;6.564;2023-04-27T10:45:36;46964.72;;;-142.92;36.57
56456;BME280;42354;53.218;6.564;2023-04-27T10:48:02;46970.88;;;-142.92;36.64
56456;BME280;42354;53.218;6.564;2023-04-27T10:50:28;46974.97;;;-142.92;36.35
56456;BME280;42354;53.218;6.564;2023-04-27T10:52:57;46972.91;;;-142.92;35.82
56456;BME280;42354;53.218;6.564;2023-04-27T10:55:25;46981.13;;;-142.92;35.50
56456;BME280;42354;53.218;6.564;2023-04-27T10:57:53;46974.97;;;-142.92;34.99
56456;BME280;42354;53.218;6.564;2023-04-27T11:00:31;46987.28;;;-142.92;34.60
56456;BME280;42354;53.218;6.564;2023-04-27T11:03:11;46972.91;;;-142.92;35.29
56456;BME280;42354;53.218;6.564;2023-04-27T11:05:38;46974.97;;;-142.92;34.78
56456;BME280;42354;53.218;6.564;2023-04-27T11:08:09;46970.88;;;-142.92;34.46
56456;BME280;42354;53.218;6.564;2023-04-27T11:10:38;46966.75;;;-142.92;34.70
56456;BME280;42354;53.218;6.564;2023-04-27T11:13:10;46954.44;;;-142.92;34.86
56456;BME280;42354;53.218;6.564;2023-04-27T11:15:49;46970.88;;;-142.92;34.67
56456;BME280;42354;53.218;6.564;2023-04-27T11:18:20;46983.19;;;-142.92;34.75
56456;BME280;42354;53.218;6.564;2023-04-27T11:20:49;46970.88;;;-142.92;34.08
56456;BME280;42354;53.218;6.564;2023-04-27T11:23:25;46966.75;;;-142.92;34.33
56456;BME280;42354;53.218;6.564;2023-04-27T11:25:51;46950.34;;;-142.92;34.36
56456;BME280;42354;53.218;6.564;2023-04-27T11:28:18;46979.06;;;-142.92;34.16
56456;BME280;42354;53.218;6.564;2023-04-27T11:30:43;46970.88;;;-142.92;34.41
56456;BME280;42354;53.218;6.564;2023-04-27T11:33:09;46962.66;;;-142.92;34.65
56456;BME280;42354;53.218;6.564;2023-04-27T11:35:34;46985.22;;;-142.92;34.95
56456;BME280;42354;53.218;6.564;2023-04-27T11:38:00;46964.72;;;-142.92;35.35
56456;BME280;42354;53.218;6.564;2023-04-27T11:40:25;46979.06;;;-142.92;36.47
56456;BME280;42354;53.218;6.564;2023-04-27T11:42:57;46970.88;;;-142.92;36.63
56456;BME280;42354;53.218;6.564;2023-04-27T11:45:26;46964.72;;;-142.92;37.01
56456;BME280;42354;53.218;6.564;2023-04-27T11:47:52;46964.72;;;-142.92;37.09
56456;BME280;42354;53.218;6.564;2023-04-27T11:50:17;46974.97;;;-142.92;37.77
56456;BME280;42354;53.218;6.564;2023-04-27T11:52:47;46966.75;;;-142.92;37.78
56456;BME280;42354;53.218;6.564;2023-04-27T11:55:13;46950.34;;;-142.92;38.24
56456;BME280;42354;53.218;6.564;2023-04-27T11:57:40;46964.72;;;-142.92;38.18
56456;BME280;42354;53.218;6.564;2023-04-27T12:00:06;46970.88;;;-142.92;38.41
56456;BME280;42354;53.218;6.564;2023-04-27T12:02:35;46987.28;;;-142.92;38.31
56456;BME280;42354;53.218;6.564;2023-04-27T12:05:02;46954.44;;;-142.92;38.89
56456;BME280;42354;53.218;6.564;2023-04-27T12:07:28;46974.97;;;-142.92;40.65
56456;BME280;42354;53.218;6.564;2023-04-27T12:09:53;46966.75;;;-142.92;44.17
56456;BME280;42354;53.218;6.564;2023-04-27T12:12:19;46958.56;;;-142.92;47.83
56456;BME280;42354;53.218;6.564;2023-04-27T12:14:47;46952.41;;;-142.92;52.27
56456;BME280;42354;53.218;6.564;2023-04-27T12:17:12;46966.75;;;-142.92;53.94
56456;BME280;42354;53.218;6.564;2023-04-27T12:19:38;46948.28;;;-142.92;54.73
56456;BME280;42354;53.218;6.564;2023-04-27T12:22:04;46954.44;;;-142.92;55.85
56456;BME280;42354;53.218;6.564;2023-04-27T12:24:30;46970.88;;;-142.92;55.78
56456;BME280;42354;53.218;6.564;2023-04-27T12:26:56;46979.06;;;-142.92;53.03
56456;BME280;42354;53.218;6.564;2023-04-27T12:29:22;46966.75;;;-142.92;52.70
56456;BME280;42354;53.218;6.564;2023-04-27T12:31:48;46974.97;;;-142.92;52.35
56456;BME280;42354;53.218;6.564;2023-04-27T12:34:14;46987.28;;;-142.92;50.31
56456;BME280;42354;53.218;6.564;2023-04-27T12:36:40;46981.13;;;-142.92;49.29
56456;BME280;42354;53.218;6.564;2023-04-27T12:39:16;46983.19;;;-142.92;50.17
56456;BME280;42354;53.218;6.564;2023-04-27T12:41:43;46968.81;;;-142.92;48.20
56456;BME280;42354;53.218;6.564;2023-04-27T12:44:09;46964.72;;;-142.92;46.84
56456;BME280;42354;53.218;6.564;2023-04-27T12:46:35;46974.97;;;-142.92;44.65
56456;BME280;42354;53.218;6.564;2023-04-27T12:49:01;46962.66;;;-142.92;43.42
56456;BME280;42354;53.218;6.564;2023-04-27T12:51:26;46979.06;;;-142.92;43.82
56456;BME280;42354;53.218;6.564;2023-04-27T12:53:53;46983.19;;;-142.92;43.33